Time;durP1;ratioP1;P1;durP2;ratioP2;P2;SDS_P1;SDS_P2;PMS_P1;PMS_P2;Temp;Humidity;BMP_temperature;BMP_pressure;BME280_temperature;BME280_humidity;BME280_pressure;Samples;Min_cycle;Max_cycle;Signal;HPM_P1;HPM_P2
2021/11/10 00:01:52;;;;;;;;;;;;;;;17.41;52.63;102574.41;5036465;28;19924;-84
2021/11/10 00:04:18;;;;;;;;;;;;;;;16.75;54.84;102568.38;5040433;28;19964;-84
2021/11/10 00:06:43;;;;;;;;;;;;;;;17.40;53.94;102568.06;5040526;28;19939;-85
2021/11/10 00:09:08;;;;;;;;;;;;;;;17.32;53.21;102565.72;5040384;28;19956;-85
2021/11/10 00:11:34;;;;;;;;;;;;;;;17.02;53.63;102584.47;5040487;28;19918;-85
2021/11/10 00:13:59;;;;;;;;;;;;;;;16.92;54.06;102584.00;5040514;28;19929;-85
2021/11/10 00:16:25;;;;;;;;;;;;;;;16.91;53.64;102582.25;5024424;28;19917;-85
2021/11/10 00:18:51;;;;;;;;;;;;;;;16.56;54.11;102584.75;5039991;28;19980;-85
2021/11/10 00:21:20;;;;;;;;;;;;;;;17.23;52.05;102579.84;5041212;28;19925;-87
2021/11/10 00:23:45;;;;;;;;;;;;;;;16.68;53.78;102569.59;5041154;28;19939;-85
2021/11/10 00:26:11;;;;;;;;;;;;;;;16.98;52.84;102566.44;5040997;28;19914;-85
2021/11/10 00:28:36;;;;;;;;;;;;;;;18.50;48.71;102552.44;5040414;28;19918;-86
2021/11/10 00:31:01;;;;;;;;;;;;;;;17.41;51.26;102560.75;5040245;28;19906;-85
2021/11/10 00:33:26;;;;;;;;;;;;;;;17.68;50.39;102556.66;5040971;28;19924;-85
2021/11/10 00:35:53;;;;;;;;;;;;;;;17.40;50.31;102556.25;5040370;28;19977;-86
2021/11/10 00:38:18;;;;;;;;;;;;;;;17.08;51.57;102565.06;5041007;28;19953;-86
2021/11/10 00:40:43;;;;;;;;;;;;;;;16.80;52.54;102554.50;5041216;28;20314;-85
2021/11/10 00:43:08;;;;;;;;;;;;;;;16.59;53.27;102543.63;5041029;28;20382;-85
2021/11/10 00:45:34;;;;;;;;;;;;;;;16.91;51.97;102543.97;5040870;28;19918;-84
2021/11/10 00:47:59;;;;;;;;;;;;;;;17.58;50.52;102540.78;5040092;28;20028;-86
2021/11/10 00:50:24;;;;;;;;;;;;;;;17.01;51.77;102533.47;5024743;28;19921;-86
2021/11/10 00:52:50;;;;;;;;;;;;;;;16.95;51.89;102534.69;5038359;28;19975;-86
2021/11/10 00:55:15;;;;;;;;;;;;;;;16.18;53.84;102532.69;5039343;28;19968;-86
2021/11/10 00:57:41;;;;;;;;;;;;;;;16.57;52.55;102533.69;5038907;28;19917;-86
2021/11/10 01:00:08;;;;;;;;;;;;;;;16.43;53.81;102520.69;5038844;28;19980;-86
2021/11/10 01:02:33;;;;;;;;;;;;;;;16.96;51.87;102517.31;5038742;28;19918;-86
2021/11/10 01:04:59;;;;;;;;;;;;;;;16.91;51.92;102519.38;5023139;28;19952;-85
2021/11/10 01:07:24;;;;;;;;;;;;;;;16.91;51.97;102516.66;5039049;28;20040;-85
2021/11/10 01:09:57;;;;;;;;;;;;;;;16.81;52.68;102518.00;5023828;28;20374;-84
2021/11/10 01:12:23;;;;;;;;;;;;;;;16.68;52.61;102511.34;5038769;28;19972;-86
2021/11/10 01:14:48;;;;;;;;;;;;;;;17.41;51.10;102504.19;5033119;28;19964;-87
2021/11/10 01:17:13;;;;;;;;;;;;;;;17.50;51.00;102502.84;5034544;28;19921;-87
2021/11/10 01:19:38;;;;;;;;;;;;;;;16.35;54.67;102510.09;5037969;28;20012;-85
2021/11/10 01:22:04;;;;;;;;;;;;;;;17.20;52.18;102497.06;5022678;28;19932;-85
2021/11/10 01:24:30;;;;;;;;;;;;;;;16.89;53.72;102495.81;5039122;28;20397;-87
2021/11/10 01:26:55;;;;;;;;;;;;;;;17.57;51.09;102503.41;5023165;28;19918;-83
2021/11/10 01:29:21;;;;;;;;;;;;;;;16.98;52.97;102504.47;5037318;28;20334;-85
2021/11/10 01:31:46;;;;;;;;;;;;;;;17.40;52.04;102496.06;5038355;28;19979;-84
2021/11/10 01:34:11;;;;;;;;;;;;;;;17.24;52.17;102488.63;5038380;28;19967;-84
2021/11/10 01:36:37;;;;;;;;;;;;;;;17.88;50.26;102481.69;5022884;28;19928;-84
2021/11/10 01:39:04;;;;;;;;;;;;;;;17.81;50.24;102480.25;5038423;28;20020;-83
2021/11/10 01:41:29;;;;;;;;;;;;;;;17.72;50.70;102469.78;5037765;28;19940;-85
2021/11/10 01:43:54;;;;;;;;;;;;;;;17.95;49.91;102463.16;5037559;28;19917;-86
2021/11/10 01:46:20;;;;;;;;;;;;;;;18.51;48.67;102457.38;5037768;28;19917;-86
2021/11/10 01:48:46;;;;;;;;;;;;;;;18.02;49.48;102444.53;5022548;28;20618;-85
2021/11/10 01:51:12;;;;;;;;;;;;;;;17.84;49.80;102436.28;5038454;28;19926;-84
2021/11/10 01:53:39;;;;;;;;;;;;;;;18.76;47.10;102424.88;5040561;28;19918;-85
2021/11/10 01:56:05;;;;;;;;;;;;;;;18.67;47.11;102433.63;5041111;28;19953;-86
2021/11/10 01:58:30;;;;;;;;;;;;;;;17.95;48.95;102440.34;5042639;28;19917;-88
2021/11/10 02:00:59;;;;;;;;;;;;;;;18.25;48.71;102437.78;5040755;28;19988;-88
2021/11/10 02:03:25;;;;;;;;;;;;;;;18.10;48.61;102433.16;5025587;28;19964;-87
2021/11/10 02:05:50;;;;;;;;;;;;;;;17.52;50.02;102424.28;5025515;28;19917;-85
2021/11/10 02:08:15;;;;;;;;;;;;;;;18.26;48.31;102422.25;5041332;28;20385;-84
2021/11/10 02:10:41;;;;;;;;;;;;;;;18.06;48.79;102416.00;5042238;28;19917;-84
2021/11/10 02:13:07;;;;;;;;;;;;;;;18.83;46.79;102416.31;5038069;28;19992;-85
2021/11/10 02:15:33;;;;;;;;;;;;;;;18.47;47.33;102415.56;5034436;28;19924;-85
2021/11/10 02:18:01;;;;;;;;;;;;;;;18.69;46.79;102419.84;5013063;28;19906;-85
2021/11/10 02:20:31;;;;;;;;;;;;;;;18.49;47.14;102413.63;5019692;28;19945;-85
2021/11/10 02:22:56;;;;;;;;;;;;;;;18.54;46.98;102410.63;5015090;28;20383;-85
2021/11/10 02:25:27;;;;;;;;;;;;;;;18.85;46.30;102419.84;5016065;28;19948;-85
2021/11/10 02:27:53;;;;;;;;;;;;;;;18.19;48.15;102435.38;5017247;28;19917;-85
2021/11/10 02:30:18;;;;;;;;;;;;;;;17.71;49.48;102436.06;5017979;28;20393;-86
2021/11/10 02:32:55;;;;;;;;;;;;;;;17.87;48.79;102443.44;5017317;28;19918;-85
2021/11/10 02:35:22;;;;;;;;;;;;;;;17.49;49.62;102435.41;5017281;28;19964;-86
2021/11/10 02:37:48;;;;;;;;;;;;;;;17.00;50.89;102445.13;5017278;28;19922;-85
2021/11/10 02:40:13;;;;;;;;;;;;;;;17.38;50.30;102448.72;5002649;28;19924;-85
2021/11/10 02:42:39;;;;;;;;;;;;;;;17.46;49.54;102446.50;5002816;28;19941;-84
2021/11/10 02:45:07;;;;;;;;;;;;;;;16.81;51.58;102447.81;5017213;28;19917;-85
2021/11/10 02:47:32;;;;;;;;;;;;;;;16.99;51.34;102435.13;5016595;28;19918;-84
2021/11/10 02:49:57;;;;;;;;;;;;;;;16.93;51.23;102438.16;5016917;28;20004;-86
2021/11/10 02:52:23;;;;;;;;;;;;;;;17.24;49.81;102417.50;5017196;28;19957;-85
2021/11/10 02:54:53;;;;;;;;;;;;;;;17.04;50.63;102423.97;5018382;28;20374;-85
2021/11/10 02:57:18;;;;;;;;;;;;;;;17.18;50.12;102409.59;5018322;28;19917;-84
2021/11/10 02:59:44;;;;;;;;;;;;;;;17.89;47.98;102412.31;5018402;28;19925;-85
2021/11/10 03:02:10;;;;;;;;;;;;;;;17.06;49.55;102426.63;5018005;28;20323;-85
2021/11/10 03:04:46;;;;;;;;;;;;;;;16.91;50.50;102412.75;5017530;28;20008;-85
2021/11/10 03:07:13;;;;;;;;;;;;;;;17.37;48.49;102415.03;5017967;28;19926;-85
2021/11/10 03:09:38;;;;;;;;;;;;;;;16.89;49.80;102420.13;5018325;28;19940;-85
2021/11/10 03:12:05;;;;;;;;;;;;;;;17.47;48.29;102430.00;5018435;28;20454;-85
2021/11/10 03:14:32;;;;;;;;;;;;;;;16.41;51.02;102424.25;5018545;28;19918;-85
2021/11/10 03:16:58;;;;;;;;;;;;;;;17.30;49.41;102419.94;5018781;28;19917;-85
2021/11/10 03:19:23;;;;;;;;;;;;;;;17.12;49.58;102421.75;5018132;28;19940;-85
2021/11/10 03:21:49;;;;;;;;;;;;;;;17.37;48.75;102420.50;5018710;28;19926;-85
2021/11/10 03:24:15;;;;;;;;;;;;;;;16.64;50.32;102420.44;5002745;28;20346;-84
2021/11/10 03:26:40;;;;;;;;;;;;;;;16.46;50.65;102416.72;5017476;28;19929;-85
2021/11/10 03:29:05;;;;;;;;;;;;;;;17.65;48.13;102405.41;5018218;28;19965;-85
2021/11/10 03:31:32;;;;;;;;;;;;;;;18.06;46.81;102418.75;5003473;28;19918;-85
2021/11/10 03:33:57;;;;;;;;;;;;;;;17.60;47.58;102419.28;5018238;28;19944;-85
2021/11/10 03:36:23;;;;;;;;;;;;;;;17.21;48.49;102424.97;5017775;28;20004;-85
2021/11/10 03:38:48;;;;;;;;;;;;;;;17.03;49.29;102438.63;5017623;28;19922;-85
2021/11/10 03:41:13;;;;;;;;;;;;;;;17.04;49.24;102432.16;5003493;28;19964;-84
2021/11/10 03:43:39;;;;;;;;;;;;;;;17.00;49.32;102427.84;5018511;28;20441;-85
2021/11/10 03:46:04;;;;;;;;;;;;;;;17.43;48.15;102424.78;5018194;28;20016;-85
2021/11/10 03:48:30;;;;;;;;;;;;;;;17.30;48.63;102425.41;5003513;28;19953;-85
2021/11/10 03:50:55;;;;;;;;;;;;;;;17.11;48.35;102432.75;5018070;28;19926;-85
2021/11/10 03:53:21;;;;;;;;;;;;;;;17.63;47.52;102426.47;5002732;28;20385;-86
2021/11/10 03:55:46;;;;;;;;;;;;;;;18.16;46.01;102421.84;5018047;28;20020;-85
2021/11/10 03:58:12;;;;;;;;;;;;;;;18.05;46.26;102422.44;5017822;28;19921;-85
2021/11/10 04:00:38;;;;;;;;;;;;;;;17.88;46.66;102426.94;5001665;28;20004;-84
2021/11/10 04:03:03;;;;;;;;;;;;;;;18.20;46.08;102420.72;5015831;28;19941;-85
2021/11/10 04:05:28;;;;;;;;;;;;;;;17.84;46.74;102419.84;5017114;28;19941;-85
2021/11/10 04:07:54;;;;;;;;;;;;;;;17.06;49.05;102443.03;5016158;28;19926;-84
2021/11/10 04:10:20;;;;;;;;;;;;;;;16.96;49.42;102445.34;5001310;28;19922;-85
2021/11/10 04:12:45;;;;;;;;;;;;;;;16.88;49.42;102439.34;5015892;28;20359;-84
2021/11/10 04:15:10;;;;;;;;;;;;;;;16.86;49.54;102442.13;5015756;28;19924;-85
2021/11/10 04:17:35;;;;;;;;;;;;;;;17.47;48.04;102431.88;5000832;28;19918;-85
2021/11/10 04:20:01;;;;;;;;;;;;;;;17.55;47.86;102440.56;5000788;28;19922;-85
2021/11/10 04:22:26;;;;;;;;;;;;;;;17.32;48.60;102447.22;5015196;28;19932;-84
2021/11/10 04:24:51;;;;;;;;;;;;;;;17.05;49.42;102444.00;5014754;28;20276;-85
2021/11/10 04:27:18;;;;;;;;;;;;;;;17.23;48.65;102445.81;5000463;28;20426;-85
2021/11/10 04:29:47;;;;;;;;;;;;;;;17.22;48.84;102441.31;5000608;28;20235;-85
2021/11/10 04:32:12;;;;;;;;;;;;;;;17.46;48.22;102435.56;5000247;28;19989;-85
2021/11/10 04:34:37;;;;;;;;;;;;;;;17.37;48.75;102434.16;5015875;28;19964;-85
2021/11/10 04:37:03;;;;;;;;;;;;;;;16.66;49.98;102445.81;5000261;28;19941;-85
2021/11/10 04:39:29;;;;;;;;;;;;;;;17.03;49.55;102445.91;5000040;28;20482;-85
2021/11/10 04:41:54;;;;;;;;;;;;;;;17.02;49.57;102442.31;5015917;28;19989;-85
2021/11/10 04:44:19;;;;;;;;;;;;;;;17.60;47.71;102440.31;5000543;28;19957;-85
2021/11/10 04:46:45;;;;;;;;;;;;;;;17.49;48.26;102432.66;5015735;28;20310;-85
2021/11/10 04:49:10;;;;;;;;;;;;;;;16.94;49.70;102442.69;5018478;28;19922;-84
2021/11/10 04:51:36;;;;;;;;;;;;;;;17.28;48.43;102449.19;5018821;28;20328;-85
2021/11/10 04:54:07;;;;;;;;;;;;;;;16.98;49.35;102452.53;5003418;28;19917;-84
2021/11/10 04:56:33;;;;;;;;;;;;;;;16.33;51.42;102454.66;5019908;28;19925;-85
2021/11/10 04:58:59;;;;;;;;;;;;;;;16.13;51.54;102453.72;5022868;28;19917;-85
2021/11/10 05:01:27;;;;;;;;;;;;;;;16.64;50.39;102455.97;5022127;28;19968;-84
2021/11/10 05:03:53;;;;;;;;;;;;;;;16.50;51.33;102456.63;5019894;28;19957;-84
2021/11/10 05:06:19;;;;;;;;;;;;;;;16.21;51.50;102439.69;5004457;28;19964;-85
2021/11/10 05:08:45;;;;;;;;;;;;;;;16.93;49.35;102449.09;5019327;28;19981;-85
2021/11/10 05:11:10;;;;;;;;;;;;;;;16.26;50.75;102443.13;5019289;28;19922;-85
2021/11/10 05:13:35;;;;;;;;;;;;;;;16.55;50.47;102443.59;5017656;28;20414;-84
2021/11/10 05:16:01;;;;;;;;;;;;;;;17.20;48.83;102445.97;5018350;28;19921;-85
2021/11/10 05:18:26;;;;;;;;;;;;;;;17.07;48.88;102442.94;5004106;28;19918;-85
2021/11/10 05:20:51;;;;;;;;;;;;;;;16.88;49.22;102434.78;5018731;28;19932;-85
2021/11/10 05:23:16;;;;;;;;;;;;;;;16.51;50.48;102433.78;5018896;28;19917;-84
2021/11/10 05:25:42;;;;;;;;;;;;;;;16.65;49.78;102433.09;5019082;28;19941;-85
2021/11/10 05:28:07;;;;;;;;;;;;;;;16.35;50.45;102430.00;5018143;28;19914;-85
2021/11/10 05:30:36;;;;;;;;;;;;;;;17.03;49.24;102440.44;5018175;28;19917;-84
2021/11/10 05:33:01;;;;;;;;;;;;;;;16.50;50.27;102440.22;5017765;28;19918;-85
2021/11/10 05:35:29;;;;;;;;;;;;;;;17.45;47.79;102429.22;5019566;28;19924;-84
2021/11/10 05:37:55;;;;;;;;;;;;;;;17.10;48.20;102434.59;5019575;28;19921;-83
2021/11/10 05:40:20;;;;;;;;;;;;;;;17.51;47.13;102433.47;5004418;28;19953;-85
2021/11/10 05:42:47;;;;;;;;;;;;;;;17.99;45.95;102440.09;5020618;28;19917;-85
2021/11/10 05:45:14;;;;;;;;;;;;;;;18.56;44.56;102444.34;5004443;28;20376;-86
2021/11/10 05:47:39;;;;;;;;;;;;;;;17.73;46.03;102448.78;5021405;28;20085;-85
2021/11/10 05:50:06;;;;;;;;;;;;;;;17.78;46.67;102446.69;5017730;28;19964;-83
2021/11/10 05:52:31;;;;;;;;;;;;;;;17.85;46.31;102449.00;5018073;28;19929;-86
2021/11/10 05:54:57;;;;;;;;;;;;;;;17.43;47.14;102457.59;5018915;28;19921;-85
2021/11/10 05:57:22;;;;;;;;;;;;;;;17.45;47.15;102450.19;5020902;28;19918;-83
2021/11/10 05:59:47;;;;;;;;;;;;;;;16.50;49.52;102458.44;5018186;28;19964;-84
2021/11/10 06:02:13;;;;;;;;;;;;;;;17.01;48.58;102456.94;5021067;28;19917;-86
2021/11/10 06:04:38;;;;;;;;;;;;;;;18.08;46.04;102440.56;5017479;28;19918;-85
2021/11/10 06:07:04;;;;;;;;;;;;;;;17.50;46.99;102448.13;5019285;28;20012;-85
2021/11/10 06:09:30;;;;;;;;;;;;;;;17.71;46.34;102454.34;5021789;28;19921;-83
2021/11/10 06:11:55;;;;;;;;;;;;;;;17.42;46.89;102455.81;5020269;28;19959;-85
2021/11/10 06:14:20;;;;;;;;;;;;;;;17.25;47.64;102453.94;5003361;28;19989;-85
2021/11/10 06:16:45;;;;;;;;;;;;;;;16.80;48.38;102457.00;5019127;28;19918;-84
2021/11/10 06:19:11;;;;;;;;;;;;;;;17.18;47.46;102458.81;5004604;28;20008;-84
2021/11/10 06:21:36;;;;;;;;;;;;;;;17.38;47.10;102455.09;5018606;28;19980;-84
2021/11/10 06:24:02;;;;;;;;;;;;;;;17.04;47.04;102462.25;5020494;28;19917;-85
2021/11/10 06:26:27;;;;;;;;;;;;;;;17.08;47.24;102469.34;5003188;28;19964;-85
2021/11/10 06:28:53;;;;;;;;;;;;;;;17.01;47.28;102465.13;5019831;28;20307;-85
2021/11/10 06:31:19;;;;;;;;;;;;;;;16.71;47.87;102465.59;5018698;28;20375;-82
2021/11/10 06:33:44;;;;;;;;;;;;;;;16.74;47.66;102459.13;5018381;28;19925;-85
2021/11/10 06:36:10;;;;;;;;;;;;;;;16.23;48.77;102462.38;5018263;28;19988;-84
2021/11/10 06:38:35;;;;;;;;;;;;;;;16.57;47.80;102468.13;5001933;28;19941;-84
2021/11/10 06:41:00;;;;;;;;;;;;;;;16.62;47.83;102475.16;5020798;28;20025;-84
2021/11/10 06:43:28;;;;;;;;;;;;;;;17.06;46.76;102471.28;5009088;28;19921;-82
2021/11/10 06:45:57;;;;;;;;;;;;;;;16.30;48.65;102468.44;5026119;28;19917;-85
2021/11/10 06:48:22;;;;;;;;;;;;;;;16.81;47.33;102469.69;5020366;28;19924;-85
2021/11/10 06:50:47;;;;;;;;;;;;;;;17.12;46.60;102476.44;5023009;28;19953;-85
2021/11/10 06:53:14;;;;;;;;;;;;;;;16.69;47.22;102478.47;5025405;28;20290;-86
2021/11/10 06:55:39;;;;;;;;;;;;;;;17.00;46.92;102475.19;5022314;28;19917;-85
2021/11/10 06:58:04;;;;;;;;;;;;;;;17.71;45.47;102468.91;5022222;28;20024;-86
2021/11/10 07:00:30;;;;;;;;;;;;;;;17.27;46.06;102480.28;5023147;28;20341;-83
2021/11/10 07:02:56;;;;;;;;;;;;;;;16.98;46.95;102484.41;5024500;28;19976;-86
2021/11/10 07:05:21;;;;;;;;;;;;;;;16.67;47.21;102485.88;5004464;28;19918;-85
2021/11/10 07:07:46;;;;;;;;;;;;;;;17.46;45.99;102480.22;5007206;28;19933;-84
2021/11/10 07:10:12;;;;;;;;;;;;;;;16.60;47.98;102489.84;5005376;28;19922;-87
2021/11/10 07:12:37;;;;;;;;;;;;;;;17.20;46.53;102487.00;5025474;28;19921;-83
2021/11/10 07:15:03;;;;;;;;;;;;;;;16.90;47.14;102482.06;5023124;28;19925;-85
2021/11/10 07:17:28;;;;;;;;;;;;;;;16.24;48.28;102493.31;5032260;28;19918;-86
2021/11/10 07:19:54;;;;;;;;;;;;;;;16.83;47.15;102502.41;5030798;28;19924;-84
2021/11/10 07:22:19;;;;;;;;;;;;;;;16.67;47.85;102510.47;5032830;28;19933;-84
2021/11/10 07:24:46;;;;;;;;;;;;;;;16.64;47.91;102519.69;5031340;28;22164;-84
2021/11/10 07:27:12;;;;;;;;;;;;;;;16.28;48.47;102523.13;5032555;28;19917;-85
2021/11/10 07:29:37;;;;;;;;;;;;;;;16.70;48.16;102528.53;5032804;28;19925;-84
2021/11/10 07:32:02;;;;;;;;;;;;;;;16.74;47.38;102520.16;5032661;28;19922;-86
2021/11/10 07:34:28;;;;;;;;;;;;;;;16.66;47.83;102515.03;5031844;28;19923;-85
2021/11/10 07:36:53;;;;;;;;;;;;;;;16.49;47.69;102512.19;5015987;28;20271;-86
2021/11/10 07:39:19;;;;;;;;;;;;;;;16.94;47.68;102502.84;5030721;28;19994;-84
2021/11/10 07:41:47;;;;;;;;;;;;;;;16.78;47.09;102497.16;5012595;28;19917;-84
2021/11/10 07:44:12;;;;;;;;;;;;;;;18.22;44.36;102485.44;5029575;28;19944;-86
2021/11/10 07:46:37;;;;;;;;;;;;;;;18.44;43.81;102478.78;5030671;28;19917;-84
2021/11/10 07:49:06;;;;;;;;;;;;;;;17.08;46.44;102477.53;5031715;28;20009;-85
2021/11/10 07:51:31;;;;;;;;;;;;;;;18.13;43.89;102464.03;5016195;28;19922;-85
2021/11/10 07:53:57;;;;;;;;;;;;;;;18.49;43.24;102452.00;4996660;28;19944;-86
2021/11/10 07:56:22;;;;;;;;;;;;;;;18.44;42.98;102461.47;5014120;28;19925;-87
2021/11/10 07:58:48;;;;;;;;;;;;;;;17.96;43.80;102451.19;5002441;28;20347;-84
2021/11/10 08:01:13;;;;;;;;;;;;;;;16.35;47.17;102474.59;5021072;28;19917;-85
2021/11/10 08:03:38;;;;;;;;;;;;;;;17.16;45.04;102496.31;5019424;28;19914;-87
2021/11/10 08:06:04;;;;;;;;;;;;;;;16.22;48.27;102520.69;4997733;28;19917;-85
2021/11/10 08:08:29;;;;;;;;;;;;;;;16.93;46.55;102524.78;4997909;28;19928;-86
2021/11/10 08:10:56;;;;;;;;;;;;;;;16.13;48.69;102530.16;5011835;28;19917;-86
2021/11/10 08:13:22;;;;;;;;;;;;;;;16.27;48.32;102526.84;5012956;28;20346;-86
2021/11/10 08:15:47;;;;;;;;;;;;;;;16.86;46.78;102513.19;5013478;28;20366;-85
2021/11/10 08:18:13;;;;;;;;;;;;;;;16.63;46.87;102501.50;5013263;28;19924;-85
2021/11/10 08:20:38;;;;;;;;;;;;;;;16.29;48.20;102496.72;4997722;28;19968;-86
2021/11/10 08:23:03;;;;;;;;;;;;;;;16.43;47.97;102504.28;5013375;28;19926;-85
2021/11/10 08:25:28;;;;;;;;;;;;;;;16.52;47.76;102503.84;5000669;28;19929;-84
2021/11/10 08:27:55;;;;;;;;;;;;;;;16.62;47.75;102499.75;5015758;28;19917;-87
2021/11/10 08:30:21;;;;;;;;;;;;;;;16.06;48.46;102487.72;5016753;28;19918;-84
2021/11/10 08:32:48;;;;;;;;;;;;;;;16.94;46.96;102493.72;5017541;28;19957;-85
2021/11/10 08:35:14;;;;;;;;;;;;;;;16.18;48.24;102494.47;5017478;28;19914;-85
2021/11/10 08:37:39;;;;;;;;;;;;;;;16.16;48.88;102493.66;5017255;28;19972;-88
2021/11/10 08:40:06;;;;;;;;;;;;;;;16.02;49.08;102501.56;5017924;28;19906;-87
2021/11/10 08:42:34;;;;;;;;;;;;;;;16.20;48.59;102498.03;5017333;28;19925;-84
2021/11/10 08:45:04;;;;;;;;;;;;;;;16.10;48.77;102493.94;5016251;28;20239;-84
2021/11/10 08:47:30;;;;;;;;;;;;;;;15.79;49.74;102500.72;5002352;28;19917;-85
2021/11/10 08:49:56;;;;;;;;;;;;;;;15.27;50.56;102503.78;5032106;28;19921;-86
2021/11/10 08:52:21;;;;;;;;;;;;;;;16.64;47.46;102488.75;5000629;28;19918;-87
2021/11/10 08:54:47;;;;;;;;;;;;;;;16.71;46.89;102492.06;5000238;28;19932;-84
2021/11/10 08:57:13;;;;;;;;;;;;;;;15.85;48.50;102500.47;5000807;28;20393;-86
2021/11/10 08:59:38;;;;;;;;;;;;;;;15.49;49.58;102503.78;4999830;28;19937;-87
2021/11/10 09:02:04;;;;;;;;;;;;;;;16.06;47.92;102498.66;4999959;28;20395;-87
2021/11/10 09:04:29;;;;;;;;;;;;;;;15.84;48.73;102500.53;5000876;28;19976;-86
2021/11/10 09:06:54;;;;;;;;;;;;;;;15.98;47.71;102498.09;4999181;28;19918;-84
2021/11/10 09:09:20;;;;;;;;;;;;;;;16.43;46.82;102507.03;5000622;28;19951;-85
2021/11/10 09:11:45;;;;;;;;;;;;;;;16.80;45.62;102510.75;5000154;28;19925;-86
2021/11/10 09:14:11;;;;;;;;;;;;;;;16.51;46.10;102515.72;5000154;28;19957;-85
2021/11/10 09:16:36;;;;;;;;;;;;;;;16.84;45.52;102506.91;5000145;28;19988;-86
2021/11/10 09:19:03;;;;;;;;;;;;;;;15.88;46.50;102518.53;5015294;28;19941;-85
2021/11/10 09:21:28;;;;;;;;;;;;;;;16.47;45.48;102505.91;5035294;28;20355;-87
2021/11/10 09:23:53;;;;;;;;;;;;;;;15.99;45.68;102494.41;5033673;28;19956;-86
2021/11/10 09:26:19;;;;;;;;;;;;;;;16.52;45.18;102498.41;5034342;28;20442;-86
2021/11/10 09:28:44;;;;;;;;;;;;;;;17.80;42.61;102492.19;5033585;28;19918;-86
2021/11/10 09:31:09;;;;;;;;;;;;;;;18.13;41.49;102496.88;5018919;28;20073;-88
2021/11/10 09:33:36;;;;;;;;;;;;;;;18.30;41.34;102487.75;5021090;28;20020;-90
2021/11/10 09:36:02;;;;;;;;;;;;;;;17.23;43.17;102494.19;5035319;28;19917;-89
2021/11/10 09:38:27;;;;;;;;;;;;;;;18.58;40.89;102491.72;5036459;28;19921;-90
2021/11/10 09:40:58;;;;;;;;;;;;;;;18.70;40.64;102488.28;5034602;28;20273;-88
2021/11/10 09:43:24;;;;;;;;;;;;;;;19.25;39.74;102497.16;5036048;28;19914;-90
2021/11/10 09:45:51;;;;;;;;;;;;;;;18.65;40.40;102493.16;5036926;28;20389;-89
2021/11/10 09:48:16;;;;;;;;;;;;;;;19.04;39.79;102502.88;5037289;28;19913;-88
2021/11/10 09:50:45;;;;;;;;;;;;;;;18.78;40.22;102510.69;5036800;28;19924;-88
2021/11/10 09:53:11;;;;;;;;;;;;;;;18.93;40.24;102494.38;5036442;28;19925;-87
2021/11/10 09:55:37;;;;;;;;;;;;;;;19.57;39.43;102497.09;5036137;28;19976;-87
2021/11/10 09:58:02;;;;;;;;;;;;;;;18.12;41.45;102499.72;5036144;28;20006;-88
2021/11/10 10:00:32;;;;;;;;;;;;;;;18.80;40.84;102491.41;5035210;28;19913;-87
2021/11/10 10:02:59;;;;;;;;;;;;;;;17.25;43.34;102508.66;5036657;28;19960;-87
2021/11/10 10:05:29;;;;;;;;;;;;;;;16.91;44.39;102496.59;5036352;28;19939;-84
2021/11/10 10:07:56;;;;;;;;;;;;;;;17.11;44.12;102495.66;5034996;28;19960;-85
2021/11/10 10:10:22;;;;;;;;;;;;;;;17.60;43.09;102493.19;5030462;28;20382;-84
2021/11/10 10:12:48;;;;;;;;;;;;;;;18.46;41.03;102497.88;5000081;28;19930;-85
2021/11/10 10:15:13;;;;;;;;;;;;;;;18.89;40.49;102488.19;5015834;28;20391;-84
2021/11/10 10:17:43;;;;;;;;;;;;;;;19.90;38.60;102493.31;4999560;28;19990;-84
2021/11/10 10:20:22;;;;;;;;;;;;;;;19.51;39.02;102498.34;4998962;28;19997;-85
2021/11/10 10:22:52;;;;;;;;;;;;;;;19.10;39.70;102499.78;4998478;28;20024;-87
2021/11/10 10:25:18;;;;;;;;;;;;;;;19.92;38.61;102502.38;4998803;28;19917;-84
2021/11/10 10:27:53;;;;;;;;;;;;;;;18.98;40.10;102507.81;5013298;28;19918;-83
2021/11/10 10:30:36;;;;;;;;;;;;;;;18.40;41.43;102508.22;5013367;28;19937;-84
2021/11/10 10:33:02;;;;;;;;;;;;;;;17.83;42.31;102508.44;5014661;28;19918;-86
2021/11/10 10:35:32;;;;;;;;;;;;;;;18.00;42.52;102507.59;5032127;28;19972;-84
2021/11/10 10:37:58;;;;;;;;;;;;;;;18.51;41.84;102507.63;5016639;28;19924;-84
2021/11/10 10:40:24;;;;;;;;;;;;;;;18.48;41.05;102505.06;5016589;28;19918;-85
2021/11/10 10:42:49;;;;;;;;;;;;;;;17.91;42.30;102512.69;5015250;28;20118;-85
2021/11/10 10:45:24;;;;;;;;;;;;;;;18.60;40.58;102508.97;5002567;28;19918;-85
2021/11/10 10:47:54;;;;;;;;;;;;;;;18.13;41.46;102515.16;5016592;28;19926;-87
2021/11/10 10:50:49;;;;;;;;;;;;;;;17.73;42.49;102507.16;5017441;28;19945;-86
2021/11/10 10:53:16;;;;;;;;;;;;;;;19.18;39.74;102506.69;5011709;28;19926;-86
2021/11/10 10:55:49;;;;;;;;;;;;;;;19.45;38.54;102499.59;4998784;28;20012;-86
2021/11/10 10:58:33;;;;;;;;;;;;;;;19.48;39.49;102491.16;5016850;28;19918;-86
2021/11/10 11:00:59;;;;;;;;;;;;;;;18.53;41.38;102497.44;4998686;28;19917;-85
2021/11/10 11:03:26;;;;;;;;;;;;;;;18.19;42.13;102501.13;5015677;28;19940;-84
2021/11/10 11:05:51;;;;;;;;;;;;;;;17.75;42.73;102501.59;5016947;28;20409;-82
2021/11/10 11:08:33;;;;;;;;;;;;;;;18.70;40.78;102495.63;5015170;28;19917;-84
2021/11/10 11:11:20;;;;;;;;;;;;;;;18.11;42.46;102493.31;5013427;28;19941;-86
2021/11/10 11:13:47;;;;;;;;;;;;;;;18.85;41.10;102483.84;5012471;28;19918;-84
2021/11/10 11:16:14;;;;;;;;;;;;;;;19.28;39.55;102486.88;4997708;28;19969;-84
2021/11/10 11:18:39;;;;;;;;;;;;;;;18.71;41.25;102489.19;4997111;28;19921;-85
2021/11/10 11:21:26;;;;;;;;;;;;;;;19.08;39.95;102490.78;5014074;28;19925;-86
2021/11/10 11:23:53;;;;;;;;;;;;;;;18.99;40.21;102483.03;4998162;28;20028;-86
2021/11/10 11:26:35;;;;;;;;;;;;;;;18.75;41.11;102488.94;5014434;28;19918;-86
2021/11/10 11:29:21;;;;;;;;;;;;;;;19.64;39.41;102482.00;4997443;28;19922;-86
2021/11/10 11:31:46;;;;;;;;;;;;;;;19.47;39.61;102481.19;4995873;28;19918;-85
2021/11/10 11:34:11;;;;;;;;;;;;;;;19.87;38.71;102479.75;5011926;28;19925;-85
2021/11/10 11:36:47;;;;;;;;;;;;;;;19.59;39.24;102478.66;5013351;28;19918;-85
2021/11/10 11:39:12;;;;;;;;;;;;;;;19.27;39.94;102482.34;5003859;28;19901;-85
2021/11/10 11:41:39;;;;;;;;;;;;;;;18.50;41.02;102478.44;5050018;28;19917;-84
2021/11/10 11:44:04;;;;;;;;;;;;;;;18.71;40.95;102480.97;5017116;28;19918;-86
2021/11/10 11:46:29;;;;;;;;;;;;;;;19.47;39.62;102472.94;5050259;28;20016;-85
2021/11/10 11:48:57;;;;;;;;;;;;;;;19.49;40.00;102467.38;5051130;28;19944;-86
2021/11/10 11:51:23;;;;;;;;;;;;;;;19.56;39.54;102467.88;5019329;28;19979;-87
2021/11/10 11:53:49;;;;;;;;;;;;;;;19.33;39.96;102472.88;5050281;28;19917;-88
2021/11/10 11:56:15;;;;;;;;;;;;;;;19.48;40.30;102468.34;5050549;28;20501;-87
2021/11/10 11:58:47;;;;;;;;;;;;;;;20.08;38.81;102461.06;5015739;28;19975;-86
2021/11/10 12:01:15;;;;;;;;;;;;;;;20.59;37.73;102463.38;5050038;28;19925;-84
2021/11/10 12:03:58;;;;;;;;;;;;;;;20.40;38.39;102464.56;5049699;28;19918;-87
2021/11/10 12:06:25;;;;;;;;;;;;;;;19.98;39.07;102466.28;5046766;28;19918;-84
2021/11/10 12:08:51;;;;;;;;;;;;;;;20.00;38.86;102461.56;5047704;28;19922;-86
2021/11/10 12:11:20;;;;;;;;;;;;;;;19.32;40.74;102453.75;5032769;28;19925;-87
2021/11/10 12:14:04;;;;;;;;;;;;;;;19.25;40.87;102462.34;5033465;28;19922;-88
2021/11/10 12:16:43;;;;;;;;;;;;;;;18.62;41.87;102468.66;5034256;28;19989;-87
2021/11/10 12:19:08;;;;;;;;;;;;;;;19.26;40.83;102476.94;5034595;28;20327;-88
2021/11/10 12:21:35;;;;;;;;;;;;;;;19.75;39.89;102473.16;5032729;28;19926;-86
2021/11/10 12:24:03;;;;;;;;;;;;;;;19.10;41.08;102472.34;5032961;28;19921;-88
2021/11/10 12:26:29;;;;;;;;;;;;;;;19.79;40.32;102467.41;5032980;28;19918;-86
2021/11/10 12:28:56;;;;;;;;;;;;;;;19.92;39.96;102464.78;5022743;28;19965;-86
2021/11/10 12:31:30;;;;;;;;;;;;;;;19.98;40.36;102469.03;5019984;28;19979;-88
2021/11/10 12:34:14;;;;;;;;;;;;;;;19.83;40.91;102460.72;5031774;28;19925;-87